Cresaptown, Maryland
Current Conditions -  °F | °C
As of 5:32 AM on Friday 19 Dec 2014 (Local Time) from KCBE Reporting Station
Overcast Overcast  
Wind Chill: 26°   Ceiling: 2800
Heat Index: 32°   Visibility: 10mi
Dew Point: 23°   Wind: 7mph
Humidity: 69%   Direction: 270°W
Pressure: 30.18"   Gusts: NA
Location:  39.5925°N, 78.8338°W
Report Text: KCBE 191032Z AUTO 27006KT 10SM OVC028 00/M05 A3018 RMK AO1
Loading
Personal Weather Stations






























Interactive Weather Map New forecast layout! Learn more

10-Day Weather Forecast

Advertisements
Track Severe Weather on mobile